sensor_id;sensor_type;location;lat;lon;timestamp;P1;durP1;ratioP1;P2;durP2;ratioP2
13816;SDS011;6979;52.116;5.286;2023-03-11T00:01:05;3.53;;;1.30;;
13816;SDS011;6979;52.116;5.286;2023-03-11T00:03:32;3.77;;;1.27;;
13816;SDS011;6979;52.116;5.286;2023-03-11T00:05:59;2.10;;;1.00;;
13816;SDS011;6979;52.116;5.286;2023-03-11T00:08:28;2.13;;;1.40;;
13816;SDS011;6979;52.116;5.286;2023-03-11T00:10:56;1.10;;;1.00;;
13816;SDS011;6979;52.116;5.286;2023-03-11T00:13:25;2.40;;;1.00;;
13816;SDS011;6979;52.116;5.286;2023-03-11T00:15:53;3.63;;;1.47;;
13816;SDS011;6979;52.116;5.286;2023-03-11T00:18:21;1.67;;;1.23;;
13816;SDS011;6979;52.116;5.286;2023-03-11T00:20:51;1.87;;;0.87;;
13816;SDS011;6979;52.116;5.286;2023-03-11T00:23:19;3.00;;;1.20;;
13816;SDS011;6979;52.116;5.286;2023-03-11T00:25:47;3.30;;;1.40;;
13816;SDS011;6979;52.116;5.286;2023-03-11T00:28:14;4.33;;;1.67;;
13816;SDS011;6979;52.116;5.286;2023-03-11T00:30:42;3.60;;;1.40;;
13816;SDS011;6979;52.116;5.286;2023-03-11T00:33:10;2.60;;;1.30;;
13816;SDS011;6979;52.116;5.286;2023-03-11T00:35:39;3.93;;;1.53;;
13816;SDS011;6979;52.116;5.286;2023-03-11T00:38:07;1.47;;;1.27;;
13816;SDS011;6979;52.116;5.286;2023-03-11T00:40:37;2.00;;;1.20;;
13816;SDS011;6979;52.116;5.286;2023-03-11T00:43:06;2.73;;;1.30;;
13816;SDS011;6979;52.116;5.286;2023-03-11T00:45:34;1.60;;;1.10;;
13816;SDS011;6979;52.116;5.286;2023-03-11T00:48:02;4.30;;;1.37;;
13816;SDS011;6979;52.116;5.286;2023-03-11T00:50:31;1.43;;;1.33;;
13816;SDS011;6979;52.116;5.286;2023-03-11T00:52:59;5.43;;;1.20;;
13816;SDS011;6979;52.116;5.286;2023-03-11T00:55:27;3.60;;;1.43;;
13816;SDS011;6979;52.116;5.286;2023-03-11T00:57:57;2.80;;;1.23;;
13816;SDS011;6979;52.116;5.286;2023-03-11T01:00:31;4.70;;;1.20;;
13816;SDS011;6979;52.116;5.286;2023-03-11T01:03:01;2.67;;;1.30;;
13816;SDS011;6979;52.116;5.286;2023-03-11T01:05:29;3.27;;;1.10;;
13816;SDS011;6979;52.116;5.286;2023-03-11T01:07:57;2.13;;;1.30;;
13816;SDS011;6979;52.116;5.286;2023-03-11T01:10:25;2.20;;;1.13;;
13816;SDS011;6979;52.116;5.286;2023-03-11T01:12:52;1.63;;;1.20;;
13816;SDS011;6979;52.116;5.286;2023-03-11T01:15:20;2.83;;;1.47;;
13816;SDS011;6979;52.116;5.286;2023-03-11T01:17:50;6.10;;;1.60;;
13816;SDS011;6979;52.116;5.286;2023-03-11T01:20:17;2.30;;;1.10;;
13816;SDS011;6979;52.116;5.286;2023-03-11T01:22:44;2.57;;;1.37;;
13816;SDS011;6979;52.116;5.286;2023-03-11T01:25:12;3.50;;;1.10;;
13816;SDS011;6979;52.116;5.286;2023-03-11T01:27:41;2.30;;;1.00;;
13816;SDS011;6979;52.116;5.286;2023-03-11T01:30:09;3.47;;;1.33;;
13816;SDS011;6979;52.116;5.286;2023-03-11T01:32:39;2.27;;;0.90;;
13816;SDS011;6979;52.116;5.286;2023-03-11T01:35:08;8.57;;;2.57;;
13816;SDS011;6979;52.116;5.286;2023-03-11T01:37:36;5.37;;;1.20;;
13816;SDS011;6979;52.116;5.286;2023-03-11T01:40:03;6.20;;;1.67;;
13816;SDS011;6979;52.116;5.286;2023-03-11T01:42:31;1.47;;;1.20;;
13816;SDS011;6979;52.116;5.286;2023-03-11T01:45:00;3.37;;;1.60;;
13816;SDS011;6979;52.116;5.286;2023-03-11T01:47:31;1.70;;;0.90;;
13816;SDS011;6979;52.116;5.286;2023-03-11T01:50:04;2.50;;;1.33;;
13816;SDS011;6979;52.116;5.286;2023-03-11T01:52:37;1.80;;;1.10;;
13816;SDS011;6979;52.116;5.286;2023-03-11T01:55:05;1.00;;;0.80;;
13816;SDS011;6979;52.116;5.286;2023-03-11T01:57:34;1.13;;;1.00;;
13816;SDS011;6979;52.116;5.286;2023-03-11T02:00:04;1.83;;;1.17;;
13816;SDS011;6979;52.116;5.286;2023-03-11T02:02:39;1.50;;;1.00;;
13816;SDS011;6979;52.116;5.286;2023-03-11T02:05:10;1.50;;;1.40;;
13816;SDS011;6979;52.116;5.286;2023-03-11T02:07:37;4.20;;;1.47;;
13816;SDS011;6979;52.116;5.286;2023-03-11T02:10:06;2.30;;;1.00;;
13816;SDS011;6979;52.116;5.286;2023-03-11T02:12:34;1.60;;;0.77;;
13816;SDS011;6979;52.116;5.286;2023-03-11T02:15:06;1.10;;;1.00;;
13816;SDS011;6979;52.116;5.286;2023-03-11T02:17:37;3.30;;;0.90;;
13816;SDS011;6979;52.116;5.286;2023-03-11T02:20:13;1.40;;;1.10;;
13816;SDS011;6979;52.116;5.286;2023-03-11T02:22:47;1.90;;;1.20;;
13816;SDS011;6979;52.116;5.286;2023-03-11T02:25:19;2.30;;;1.07;;
13816;SDS011;6979;52.116;5.286;2023-03-11T02:27:52;1.97;;;1.10;;
13816;SDS011;6979;52.116;5.286;2023-03-11T02:30:23;1.47;;;1.30;;
13816;SDS011;6979;52.116;5.286;2023-03-11T02:32:52;1.73;;;1.20;;
13816;SDS011;6979;52.116;5.286;2023-03-11T02:35:21;1.40;;;1.30;;
13816;SDS011;6979;52.116;5.286;2023-03-11T02:37:50;1.70;;;1.43;;
13816;SDS011;6979;52.116;5.286;2023-03-11T02:40:27;2.40;;;1.73;;
13816;SDS011;6979;52.116;5.286;2023-03-11T02:43:12;1.97;;;1.40;;
13816;SDS011;6979;52.116;5.286;2023-03-11T02:45:41;2.57;;;1.40;;
13816;SDS011;6979;52.116;5.286;2023-03-11T02:48:11;2.03;;;1.23;;
13816;SDS011;6979;52.116;5.286;2023-03-11T02:50:39;3.17;;;1.30;;
13816;SDS011;6979;52.116;5.286;2023-03-11T02:53:07;1.67;;;1.40;;
13816;SDS011;6979;52.116;5.286;2023-03-11T02:55:34;3.40;;;1.33;;
13816;SDS011;6979;52.116;5.286;2023-03-11T02:58:01;3.03;;;1.20;;
13816;SDS011;6979;52.116;5.286;2023-03-11T03:00:30;3.03;;;1.23;;
13816;SDS011;6979;52.116;5.286;2023-03-11T03:03:02;1.30;;;1.20;;
13816;SDS011;6979;52.116;5.286;2023-03-11T03:05:29;1.50;;;1.00;;
13816;SDS011;6979;52.116;5.286;2023-03-11T03:07:57;1.73;;;1.33;;
13816;SDS011;6979;52.116;5.286;2023-03-11T03:10:24;1.50;;;1.40;;
13816;SDS011;6979;52.116;5.286;2023-03-11T03:12:51;1.30;;;1.17;;
13816;SDS011;6979;52.116;5.286;2023-03-11T03:15:18;1.43;;;1.20;;
13816;SDS011;6979;52.116;5.286;2023-03-11T03:17:46;2.60;;;1.40;;
13816;SDS011;6979;52.116;5.286;2023-03-11T03:20:15;1.20;;;1.10;;
13816;SDS011;6979;52.116;5.286;2023-03-11T03:22:48;1.77;;;1.03;;
13816;SDS011;6979;52.116;5.286;2023-03-11T03:25:17;1.00;;;0.80;;
13816;SDS011;6979;52.116;5.286;2023-03-11T03:27:45;3.60;;;1.13;;
13816;SDS011;6979;52.116;5.286;2023-03-11T03:30:13;2.37;;;0.97;;
13816;SDS011;6979;52.116;5.286;2023-03-11T03:32:40;1.43;;;1.00;;
13816;SDS011;6979;52.116;5.286;2023-03-11T03:35:12;2.77;;;1.13;;
13816;SDS011;6979;52.116;5.286;2023-03-11T03:37:55;1.07;;;0.97;;
13816;SDS011;6979;52.116;5.286;2023-03-11T03:40:23;1.57;;;1.20;;
13816;SDS011;6979;52.116;5.286;2023-03-11T03:42:52;2.50;;;1.37;;
13816;SDS011;6979;52.116;5.286;2023-03-11T03:45:19;1.53;;;0.80;;
13816;SDS011;6979;52.116;5.286;2023-03-11T03:47:49;2.03;;;1.07;;
13816;SDS011;6979;52.116;5.286;2023-03-11T03:50:19;1.47;;;0.90;;
13816;SDS011;6979;52.116;5.286;2023-03-11T03:52:47;1.77;;;0.90;;
13816;SDS011;6979;52.116;5.286;2023-03-11T03:55:14;1.80;;;0.93;;
13816;SDS011;6979;52.116;5.286;2023-03-11T03:57:41;1.67;;;1.10;;
13816;SDS011;6979;52.116;5.286;2023-03-11T04:00:11;3.07;;;1.13;;
13816;SDS011;6979;52.116;5.286;2023-03-11T04:02:40;2.17;;;0.83;;
13816;SDS011;6979;52.116;5.286;2023-03-11T04:05:15;1.67;;;0.70;;
13816;SDS011;6979;52.116;5.286;2023-03-11T04:07:44;0.80;;;0.80;;
13816;SDS011;6979;52.116;5.286;2023-03-11T04:10:12;1.70;;;1.23;;
13816;SDS011;6979;52.116;5.286;2023-03-11T04:12:40;3.40;;;1.20;;
13816;SDS011;6979;52.116;5.286;2023-03-11T04:15:07;1.37;;;1.27;;
13816;SDS011;6979;52.116;5.286;2023-03-11T04:17:35;1.97;;;1.07;;
13816;SDS011;6979;52.116;5.286;2023-03-11T04:20:03;2.70;;;1.17;;
13816;SDS011;6979;52.116;5.286;2023-03-11T04:22:33;1.30;;;0.80;;
13816;SDS011;6979;52.116;5.286;2023-03-11T04:25:01;1.70;;;0.90;;
13816;SDS011;6979;52.116;5.286;2023-03-11T04:27:30;2.30;;;1.37;;
13816;SDS011;6979;52.116;5.286;2023-03-11T04:29:57;2.30;;;0.90;;
13816;SDS011;6979;52.116;5.286;2023-03-11T04:32:24;2.60;;;1.10;;
13816;SDS011;6979;52.116;5.286;2023-03-11T04:34:51;1.00;;;0.90;;
13816;SDS011;6979;52.116;5.286;2023-03-11T04:37:18;1.73;;;0.90;;
13816;SDS011;6979;52.116;5.286;2023-03-11T04:39:46;1.17;;;0.80;;
13816;SDS011;6979;52.116;5.286;2023-03-11T04:42:14;1.10;;;1.00;;
13816;SDS011;6979;52.116;5.286;2023-03-11T04:44:43;1.53;;;0.87;;
13816;SDS011;6979;52.116;5.286;2023-03-11T04:47:10;1.77;;;1.67;;
13816;SDS011;6979;52.116;5.286;2023-03-11T04:49:38;1.23;;;1.00;;
13816;SDS011;6979;52.116;5.286;2023-03-11T04:52:05;2.00;;;1.00;;
13816;SDS011;6979;52.116;5.286;2023-03-11T04:54:32;1.43;;;1.00;;
13816;SDS011;6979;52.116;5.286;2023-03-11T04:56:59;1.40;;;1.17;;
13816;SDS011;6979;52.116;5.286;2023-03-11T04:59:28;0.80;;;0.80;;
13816;SDS011;6979;52.116;5.286;2023-03-11T05:01:55;1.93;;;0.90;;
13816;SDS011;6979;52.116;5.286;2023-03-11T05:04:22;1.30;;;1.20;;
13816;SDS011;6979;52.116;5.286;2023-03-11T05:06:49;3.37;;;1.30;;
13816;SDS011;6979;52.116;5.286;2023-03-11T05:09:16;1.80;;;1.17;;
13816;SDS011;6979;52.116;5.286;2023-03-11T05:11:43;1.53;;;1.10;;
13816;SDS011;6979;52.116;5.286;2023-03-11T05:14:11;1.97;;;1.07;;
13816;SDS011;6979;52.116;5.286;2023-03-11T05:16:39;1.50;;;1.20;;
13816;SDS011;6979;52.116;5.286;2023-03-11T05:19:06;1.33;;;1.00;;
13816;SDS011;6979;52.116;5.286;2023-03-11T05:21:47;1.10;;;1.00;;
13816;SDS011;6979;52.116;5.286;2023-03-11T05:24:15;2.50;;;1.00;;
13816;SDS011;6979;52.116;5.286;2023-03-11T05:26:42;1.30;;;1.03;;
13816;SDS011;6979;52.116;5.286;2023-03-11T05:29:09;3.17;;;1.17;;
13816;SDS011;6979;52.116;5.286;2023-03-11T05:31:36;1.53;;;1.20;;
13816;SDS011;6979;52.116;5.286;2023-03-11T05:34:04;2.23;;;1.00;;
13816;SDS011;6979;52.116;5.286;2023-03-11T05:36:32;1.20;;;1.03;;
13816;SDS011;6979;52.116;5.286;2023-03-11T05:38:59;2.57;;;1.20;;
13816;SDS011;6979;52.116;5.286;2023-03-11T05:41:26;0.90;;;0.90;;
13816;SDS011;6979;52.116;5.286;2023-03-11T05:43:53;0.77;;;0.70;;
13816;SDS011;6979;52.116;5.286;2023-03-11T05:46:20;1.50;;;1.00;;
13816;SDS011;6979;52.116;5.286;2023-03-11T05:48:47;1.50;;;0.83;;
13816;SDS011;6979;52.116;5.286;2023-03-11T05:51:15;4.00;;;1.40;;
13816;SDS011;6979;52.116;5.286;2023-03-11T05:53:45;1.33;;;0.60;;
13816;SDS011;6979;52.116;5.286;2023-03-11T05:56:17;1.83;;;1.00;;
13816;SDS011;6979;52.116;5.286;2023-03-11T05:58:46;1.47;;;1.17;;
13816;SDS011;6979;52.116;5.286;2023-03-11T06:01:13;0.80;;;0.80;;
13816;SDS011;6979;52.116;5.286;2023-03-11T06:03:41;1.30;;;0.83;;
13816;SDS011;6979;52.116;5.286;2023-03-11T06:06:09;1.07;;;1.00;;
13816;SDS011;6979;52.116;5.286;2023-03-11T06:08:39;2.57;;;1.10;;
13816;SDS011;6979;52.116;5.286;2023-03-11T06:11:10;1.60;;;1.50;;
13816;SDS011;6979;52.116;5.286;2023-03-11T06:13:38;2.10;;;1.00;;
13816;SDS011;6979;52.116;5.286;2023-03-11T06:16:07;2.20;;;1.20;;
13816;SDS011;6979;52.116;5.286;2023-03-11T06:18:35;1.77;;;1.30;;
13816;SDS011;6979;52.116;5.286;2023-03-11T06:21:03;1.97;;;1.20;;
13816;SDS011;6979;52.116;5.286;2023-03-11T06:23:33;1.50;;;1.30;;
13816;SDS011;6979;52.116;5.286;2023-03-11T06:26:02;1.40;;;1.33;;
13816;SDS011;6979;52.116;5.286;2023-03-11T06:28:35;2.27;;;1.20;;
13816;SDS011;6979;52.116;5.286;2023-03-11T06:31:06;2.93;;;1.33;;
13816;SDS011;6979;52.116;5.286;2023-03-11T06:33:33;1.10;;;1.00;;
13816;SDS011;6979;52.116;5.286;2023-03-11T06:36:01;1.30;;;1.20;;
13816;SDS011;6979;52.116;5.286;2023-03-11T06:38:29;1.93;;;1.20;;
13816;SDS011;6979;52.116;5.286;2023-03-11T06:40:57;2.37;;;1.30;;
13816;SDS011;6979;52.116;5.286;2023-03-11T06:43:26;1.43;;;1.20;;
13816;SDS011;6979;52.116;5.286;2023-03-11T06:45:53;2.57;;;1.20;;
13816;SDS011;6979;52.116;5.286;2023-03-11T06:48:20;1.40;;;1.30;;
13816;SDS011;6979;52.116;5.286;2023-03-11T06:50:52;1.73;;;1.60;;
13816;SDS011;6979;52.116;5.286;2023-03-11T06:53:20;2.40;;;1.80;;
13816;SDS011;6979;52.116;5.286;2023-03-11T06:55:56;2.10;;;1.90;;
13816;SDS011;6979;52.116;5.286;2023-03-11T06:58:24;3.33;;;2.30;;
13816;SDS011;6979;52.116;5.286;2023-03-11T07:00:52;3.87;;;2.83;;
13816;SDS011;6979;52.116;5.286;2023-03-11T07:03:19;3.73;;;1.90;;
13816;SDS011;6979;52.116;5.286;2023-03-11T07:05:48;1.60;;;1.50;;
13816;SDS011;6979;52.116;5.286;2023-03-11T07:08:16;2.23;;;1.30;;
13816;SDS011;6979;52.116;5.286;2023-03-11T07:10:43;1.93;;;1.33;;
13816;SDS011;6979;52.116;5.286;2023-03-11T07:13:10;1.37;;;1.27;;
13816;SDS011;6979;52.116;5.286;2023-03-11T07:15:37;1.40;;;1.30;;
13816;SDS011;6979;52.116;5.286;2023-03-11T07:18:06;4.20;;;1.50;;
13816;SDS011;6979;52.116;5.286;2023-03-11T07:20:33;1.60;;;1.30;;
13816;SDS011;6979;52.116;5.286;2023-03-11T07:23:00;1.60;;;1.50;;
13816;SDS011;6979;52.116;5.286;2023-03-11T07:25:26;1.67;;;1.40;;
13816;SDS011;6979;52.116;5.286;2023-03-11T07:27:53;2.93;;;1.50;;
13816;SDS011;6979;52.116;5.286;2023-03-11T07:30:20;1.60;;;1.20;;
13816;SDS011;6979;52.116;5.286;2023-03-11T07:32:47;1.93;;;1.43;;
13816;SDS011;6979;52.116;5.286;2023-03-11T07:35:15;2.37;;;2.17;;
13816;SDS011;6979;52.116;5.286;2023-03-11T07:37:45;3.10;;;2.53;;
13816;SDS011;6979;52.116;5.286;2023-03-11T07:40:12;2.03;;;1.93;;
13816;SDS011;6979;52.116;5.286;2023-03-11T07:42:39;2.83;;;2.13;;
13816;SDS011;6979;52.116;5.286;2023-03-11T07:45:06;2.20;;;1.60;;
13816;SDS011;6979;52.116;5.286;2023-03-11T07:47:34;2.17;;;1.83;;
13816;SDS011;6979;52.116;5.286;2023-03-11T07:50:01;2.03;;;1.57;;
13816;SDS011;6979;52.116;5.286;2023-03-11T07:52:30;3.50;;;2.57;;
13816;SDS011;6979;52.116;5.286;2023-03-11T07:54:57;3.07;;;2.10;;
13816;SDS011;6979;52.116;5.286;2023-03-11T07:57:27;1.70;;;1.60;;
13816;SDS011;6979;52.116;5.286;2023-03-11T07:59:57;2.60;;;2.40;;
13816;SDS011;6979;52.116;5.286;2023-03-11T08:02:23;2.43;;;1.80;;
13816;SDS011;6979;52.116;5.286;2023-03-11T08:04:54;2.03;;;1.83;;
13816;SDS011;6979;52.116;5.286;2023-03-11T08:07:21;2.00;;;1.90;;
13816;SDS011;6979;52.116;5.286;2023-03-11T08:09:53;2.20;;;1.97;;
13816;SDS011;6979;52.116;5.286;2023-03-11T08:12:19;2.70;;;1.73;;
13816;SDS011;6979;52.116;5.286;2023-03-11T08:14:51;3.37;;;1.50;;
13816;SDS011;6979;52.116;5.286;2023-03-11T08:17:18;2.53;;;1.80;;
13816;SDS011;6979;52.116;5.286;2023-03-11T08:19:45;2.17;;;1.77;;
13816;SDS011;6979;52.116;5.286;2023-03-11T08:22:14;2.83;;;1.70;;
13816;SDS011;6979;52.116;5.286;2023-03-11T08:24:48;3.00;;;2.40;;
13816;SDS011;6979;52.116;5.286;2023-03-11T08:27:22;2.83;;;1.80;;
13816;SDS011;6979;52.116;5.286;2023-03-11T08:29:48;4.37;;;2.00;;
13816;SDS011;6979;52.116;5.286;2023-03-11T08:32:15;2.43;;;2.10;;
13816;SDS011;6979;52.116;5.286;2023-03-11T08:34:45;2.37;;;1.93;;
13816;SDS011;6979;52.116;5.286;2023-03-11T08:37:12;2.37;;;2.10;;
13816;SDS011;6979;52.116;5.286;2023-03-11T08:39:38;2.00;;;1.90;;
13816;SDS011;6979;52.116;5.286;2023-03-11T08:42:22;2.37;;;2.20;;
13816;SDS011;6979;52.116;5.286;2023-03-11T08:45:01;2.93;;;2.13;;
13816;SDS011;6979;52.116;5.286;2023-03-11T08:47:32;4.73;;;2.17;;
13816;SDS011;6979;52.116;5.286;2023-03-11T08:50:00;2.43;;;1.90;;
13816;SDS011;6979;52.116;5.286;2023-03-11T08:52:27;4.93;;;2.30;;
13816;SDS011;6979;52.116;5.286;2023-03-11T08:54:53;4.97;;;2.50;;
13816;SDS011;6979;52.116;5.286;2023-03-11T08:57:22;3.13;;;2.90;;
13816;SDS011;6979;52.116;5.286;2023-03-11T08:59:51;2.20;;;2.00;;
13816;SDS011;6979;52.116;5.286;2023-03-11T09:02:17;3.10;;;2.27;;
13816;SDS011;6979;52.116;5.286;2023-03-11T09:04:44;2.23;;;2.07;;
13816;SDS011;6979;52.116;5.286;2023-03-11T09:07:11;1.90;;;1.70;;
13816;SDS011;6979;52.116;5.286;2023-03-11T09:09:39;2.67;;;1.90;;
13816;SDS011;6979;52.116;5.286;2023-03-11T09:12:06;4.13;;;2.53;;
13816;SDS011;6979;52.116;5.286;2023-03-11T09:14:33;2.97;;;2.10;;
13816;SDS011;6979;52.116;5.286;2023-03-11T09:17:02;2.00;;;1.77;;
13816;SDS011;6979;52.116;5.286;2023-03-11T09:19:29;1.67;;;1.57;;
13816;SDS011;6979;52.116;5.286;2023-03-11T09:21:58;1.60;;;1.50;;
13816;SDS011;6979;52.116;5.286;2023-03-11T09:24:25;2.80;;;2.10;;
13816;SDS011;6979;52.116;5.286;2023-03-11T09:26:52;5.60;;;2.00;;
13816;SDS011;6979;52.116;5.286;2023-03-11T09:29:19;2.57;;;2.20;;
13816;SDS011;6979;52.116;5.286;2023-03-11T09:31:47;4.27;;;2.30;;
13816;SDS011;6979;52.116;5.286;2023-03-11T09:34:15;1.57;;;1.47;;
13816;SDS011;6979;52.116;5.286;2023-03-11T09:36:43;1.90;;;1.80;;
13816;SDS011;6979;52.116;5.286;2023-03-11T09:39:11;2.60;;;2.23;;
13816;SDS011;6979;52.116;5.286;2023-03-11T09:41:44;1.97;;;1.33;;
13816;SDS011;6979;52.116;5.286;2023-03-11T09:44:17;1.87;;;1.60;;
13816;SDS011;6979;52.116;5.286;2023-03-11T09:49:47;2.13;;;1.57;;
13816;SDS011;6979;52.116;5.286;2023-03-11T09:52:32;2.70;;;1.67;;
13816;SDS011;6979;52.116;5.286;2023-03-11T09:55:03;11.50;;;1.73;;
13816;SDS011;6979;52.116;5.286;2023-03-11T09:57:41;2.13;;;1.03;;
13816;SDS011;6979;52.116;5.286;2023-03-11T10:00:09;1.97;;;1.30;;
13816;SDS011;6979;52.116;5.286;2023-03-11T10:02:38;2.83;;;1.43;;
13816;SDS011;6979;52.116;5.286;2023-03-11T10:05:07;1.77;;;1.30;;
13816;SDS011;6979;52.116;5.286;2023-03-11T10:07:39;2.47;;;1.13;;
13816;SDS011;6979;52.116;5.286;2023-03-11T10:10:10;1.17;;;0.83;;
13816;SDS011;6979;52.116;5.286;2023-03-11T10:12:42;1.73;;;1.10;;
13816;SDS011;6979;52.116;5.286;2023-03-11T10:15:16;4.67;;;1.23;;
13816;SDS011;6979;52.116;5.286;2023-03-11T10:17:54;1.63;;;1.00;;
13816;SDS011;6979;52.116;5.286;2023-03-11T10:20:32;1.03;;;0.93;;
13816;SDS011;6979;52.116;5.286;2023-03-11T10:23:10;1.03;;;0.93;;
13816;SDS011;6979;52.116;5.286;2023-03-11T10:25:49;1.27;;;1.07;;
13816;SDS011;6979;52.116;5.286;2023-03-11T10:28:24;2.00;;;1.20;;
13816;SDS011;6979;52.116;5.286;2023-03-11T10:30:56;0.93;;;0.83;;
13816;SDS011;6979;52.116;5.286;2023-03-11T10:33:28;2.47;;;1.03;;
13816;SDS011;6979;52.116;5.286;2023-03-11T10:36:03;3.50;;;0.90;;
13816;SDS011;6979;52.116;5.286;2023-03-11T10:38:32;2.60;;;0.77;;
13816;SDS011;6979;52.116;5.286;2023-03-11T10:41:05;3.40;;;1.37;;
13816;SDS011;6979;52.116;5.286;2023-03-11T10:43:40;2.63;;;1.13;;
13816;SDS011;6979;52.116;5.286;2023-03-11T10:46:12;3.23;;;0.83;;
13816;SDS011;6979;52.116;5.286;2023-03-11T10:48:44;0.70;;;0.70;;
13816;SDS011;6979;52.116;5.286;2023-03-11T10:51:13;1.67;;;0.80;;
13816;SDS011;6979;52.116;5.286;2023-03-11T10:53:47;2.77;;;0.80;;
13816;SDS011;6979;52.116;5.286;2023-03-11T10:56:29;0.80;;;0.80;;
13816;SDS011;6979;52.116;5.286;2023-03-11T10:58:57;1.60;;;0.73;;
13816;SDS011;6979;52.116;5.286;2023-03-11T11:01:25;2.23;;;0.70;;
13816;SDS011;6979;52.116;5.286;2023-03-11T11:03:54;1.03;;;0.70;;
13816;SDS011;6979;52.116;5.286;2023-03-11T11:06:28;1.37;;;0.87;;
13816;SDS011;6979;52.116;5.286;2023-03-11T11:09:03;1.20;;;0.60;;
13816;SDS011;6979;52.116;5.286;2023-03-11T11:11:32;3.50;;;0.97;;
13816;SDS011;6979;52.116;5.286;2023-03-11T11:13:59;4.10;;;1.37;;
13816;SDS011;6979;52.116;5.286;2023-03-11T11:16:27;2.03;;;0.90;;
13816;SDS011;6979;52.116;5.286;2023-03-11T11:18:56;2.27;;;1.00;;
13816;SDS011;6979;52.116;5.286;2023-03-11T11:21:29;1.47;;;0.80;;
13816;SDS011;6979;52.116;5.286;2023-03-11T11:24:02;1.87;;;1.10;;
13816;SDS011;6979;52.116;5.286;2023-03-11T11:29:31;1.43;;;0.83;;
13816;SDS011;6979;52.116;5.286;2023-03-11T11:32:09;2.37;;;1.13;;
13816;SDS011;6979;52.116;5.286;2023-03-11T11:34:47;1.00;;;0.90;;
13816;SDS011;6979;52.116;5.286;2023-03-11T11:37:21;0.80;;;0.80;;
13816;SDS011;6979;52.116;5.286;2023-03-11T11:39:52;2.67;;;1.43;;
13816;SDS011;6979;52.116;5.286;2023-03-11T11:42:22;3.20;;;1.27;;
13816;SDS011;6979;52.116;5.286;2023-03-11T11:44:52;2.43;;;1.23;;
13816;SDS011;6979;52.116;5.286;2023-03-11T11:47:23;2.60;;;1.23;;
13816;SDS011;6979;52.116;5.286;2023-03-11T11:49:55;1.97;;;1.10;;
13816;SDS011;6979;52.116;5.286;2023-03-11T11:52:29;1.50;;;0.80;;
13816;SDS011;6979;52.116;5.286;2023-03-11T11:54:59;1.50;;;1.40;;
13816;SDS011;6979;52.116;5.286;2023-03-11T11:57:28;3.00;;;1.07;;
13816;SDS011;6979;52.116;5.286;2023-03-11T11:59:57;1.77;;;1.00;;
13816;SDS011;6979;52.116;5.286;2023-03-11T12:02:41;0.90;;;0.90;;
13816;SDS011;6979;52.116;5.286;2023-03-11T12:05:22;1.20;;;1.10;;
13816;SDS011;6979;52.116;5.286;2023-03-11T12:08:01;2.47;;;1.20;;
13816;SDS011;6979;52.116;5.286;2023-03-11T12:10:36;2.67;;;1.10;;
13816;SDS011;6979;52.116;5.286;2023-03-11T12:16:10;1.83;;;1.30;;
13816;SDS011;6979;52.116;5.286;2023-03-11T12:18:46;1.80;;;0.80;;
13816;SDS011;6979;52.116;5.286;2023-03-11T12:21:18;1.80;;;1.23;;
13816;SDS011;6979;52.116;5.286;2023-03-11T12:24:01;2.03;;;1.83;;
13816;SDS011;6979;52.116;5.286;2023-03-11T12:26:44;2.90;;;1.37;;
13816;SDS011;6979;52.116;5.286;2023-03-11T12:29:18;2.07;;;1.83;;
13816;SDS011;6979;52.116;5.286;2023-03-11T12:31:49;2.10;;;0.90;;
13816;SDS011;6979;52.116;5.286;2023-03-11T12:34:19;1.83;;;1.20;;
13816;SDS011;6979;52.116;5.286;2023-03-11T12:36:47;1.40;;;0.93;;
13816;SDS011;6979;52.116;5.286;2023-03-11T12:39:20;2.33;;;0.97;;
13816;SDS011;6979;52.116;5.286;2023-03-11T12:41:56;3.33;;;1.40;;
13816;SDS011;6979;52.116;5.286;2023-03-11T12:44:41;3.47;;;1.37;;
13816;SDS011;6979;52.116;5.286;2023-03-11T12:47:18;1.73;;;1.17;;
13816;SDS011;6979;52.116;5.286;2023-03-11T12:49:56;2.23;;;1.10;;
13816;SDS011;6979;52.116;5.286;2023-03-11T12:53:03;2.17;;;1.30;;
13816;SDS011;6979;52.116;5.286;2023-03-11T12:55:33;2.23;;;1.50;;
13816;SDS011;6979;52.116;5.286;2023-03-11T12:58:16;2.07;;;1.23;;
13816;SDS011;6979;52.116;5.286;2023-03-11T13:01:14;4.40;;;1.30;;
13816;SDS011;6979;52.116;5.286;2023-03-11T13:03:54;1.23;;;1.00;;
13816;SDS011;6979;52.116;5.286;2023-03-11T13:09:27;1.77;;;1.30;;
13816;SDS011;6979;52.116;5.286;2023-03-11T13:11:55;2.27;;;1.13;;
13816;SDS011;6979;52.116;5.286;2023-03-11T13:14:25;1.87;;;1.07;;
13816;SDS011;6979;52.116;5.286;2023-03-11T13:16:54;1.93;;;1.30;;
13816;SDS011;6979;52.116;5.286;2023-03-11T13:25:30;1.73;;;1.30;;
13816;SDS011;6979;52.116;5.286;2023-03-11T13:28:18;1.13;;;1.00;;
13816;SDS011;6979;52.116;5.286;2023-03-11T13:30:58;1.43;;;1.20;;
13816;SDS011;6979;52.116;5.286;2023-03-11T13:33:47;1.70;;;1.10;;
13816;SDS011;6979;52.116;5.286;2023-03-11T13:36:24;1.50;;;1.37;;
13816;SDS011;6979;52.116;5.286;2023-03-11T13:39:12;2.00;;;1.30;;
13816;SDS011;6979;52.116;5.286;2023-03-11T13:41:50;2.43;;;1.30;;
13816;SDS011;6979;52.116;5.286;2023-03-11T13:44:23;0.90;;;0.90;;
13816;SDS011;6979;52.116;5.286;2023-03-11T13:46:55;1.40;;;0.93;;
13816;SDS011;6979;52.116;5.286;2023-03-11T13:49:29;2.30;;;1.10;;
13816;SDS011;6979;52.116;5.286;2023-03-11T13:52:00;2.00;;;1.00;;
13816;SDS011;6979;52.116;5.286;2023-03-11T13:54:33;2.20;;;1.27;;
13816;SDS011;6979;52.116;5.286;2023-03-11T13:57:04;0.93;;;0.80;;
13816;SDS011;6979;52.116;5.286;2023-03-11T13:59:35;2.13;;;1.10;;
13816;SDS011;6979;52.116;5.286;2023-03-11T14:02:10;1.70;;;0.87;;
13816;SDS011;6979;52.116;5.286;2023-03-11T14:04:43;1.70;;;0.70;;
13816;SDS011;6979;52.116;5.286;2023-03-11T14:07:18;1.33;;;1.03;;
13816;SDS011;6979;52.116;5.286;2023-03-11T14:09:49;0.90;;;0.90;;
13816;SDS011;6979;52.116;5.286;2023-03-11T14:12:16;0.83;;;0.83;;
13816;SDS011;6979;52.116;5.286;2023-03-11T14:14:45;1.50;;;0.90;;
13816;SDS011;6979;52.116;5.286;2023-03-11T14:17:16;2.43;;;1.07;;
13816;SDS011;6979;52.116;5.286;2023-03-11T14:22:28;1.50;;;0.80;;
13816;SDS011;6979;52.116;5.286;2023-03-11T14:24:56;0.90;;;0.80;;
13816;SDS011;6979;52.116;5.286;2023-03-11T14:27:25;1.33;;;1.13;;
13816;SDS011;6979;52.116;5.286;2023-03-11T14:29:54;2.33;;;2.13;;
13816;SDS011;6979;52.116;5.286;2023-03-11T14:32:24;1.93;;;1.77;;
13816;SDS011;6979;52.116;5.286;2023-03-11T14:34:52;1.50;;;1.40;;
13816;SDS011;6979;52.116;5.286;2023-03-11T14:37:23;1.80;;;1.20;;
13816;SDS011;6979;52.116;5.286;2023-03-11T14:39:55;1.10;;;1.00;;
13816;SDS011;6979;52.116;5.286;2023-03-11T14:42:22;0.93;;;0.90;;
13816;SDS011;6979;52.116;5.286;2023-03-11T14:44:54;3.77;;;0.80;;
13816;SDS011;6979;52.116;5.286;2023-03-11T14:47:28;0.93;;;0.93;;
13816;SDS011;6979;52.116;5.286;2023-03-11T14:49:59;1.20;;;1.10;;
13816;SDS011;6979;52.116;5.286;2023-03-11T14:52:30;1.23;;;0.70;;
13816;SDS011;6979;52.116;5.286;2023-03-11T14:55:02;1.70;;;0.93;;
13816;SDS011;6979;52.116;5.286;2023-03-11T14:57:34;1.47;;;1.37;;
13816;SDS011;6979;52.116;5.286;2023-03-11T15:00:09;2.40;;;0.97;;
13816;SDS011;6979;52.116;5.286;2023-03-11T15:02:42;0.77;;;0.77;;
13816;SDS011;6979;52.116;5.286;2023-03-11T15:05:16;1.43;;;0.90;;
13816;SDS011;6979;52.116;5.286;2023-03-11T15:07:47;3.70;;;1.47;;
13816;SDS011;6979;52.116;5.286;2023-03-11T15:10:16;1.07;;;1.00;;
13816;SDS011;6979;52.116;5.286;2023-03-11T15:12:43;1.53;;;1.17;;
13816;SDS011;6979;52.116;5.286;2023-03-11T15:15:22;2.13;;;1.40;;
13816;SDS011;6979;52.116;5.286;2023-03-11T15:17:52;1.17;;;1.17;;
13816;SDS011;6979;52.116;5.286;2023-03-11T15:20:24;1.50;;;0.93;;
13816;SDS011;6979;52.116;5.286;2023-03-11T15:22:53;1.63;;;1.23;;
13816;SDS011;6979;52.116;5.286;2023-03-11T15:25:26;1.37;;;1.03;;
13816;SDS011;6979;52.116;5.286;2023-03-11T15:27:55;2.13;;;1.10;;
13816;SDS011;6979;52.116;5.286;2023-03-11T15:30:24;2.57;;;1.10;;
13816;SDS011;6979;52.116;5.286;2023-03-11T15:32:52;1.13;;;1.03;;
13816;SDS011;6979;52.116;5.286;2023-03-11T15:35:20;1.10;;;1.07;;
13816;SDS011;6979;52.116;5.286;2023-03-11T15:37:49;3.87;;;3.23;;
13816;SDS011;6979;52.116;5.286;2023-03-11T15:40:19;1.77;;;1.60;;